Time;durP1;ratioP1;P1;durP2;ratioP2;P2;SDS_P1;SDS_P2;PMS_P1;PMS_P2;Temp;Humidity;BMP_temperature;BMP_pressure;BME280_temperature;BME280_humidity;BME280_pressure;Samples;Min_cycle;Max_cycle;Signal;HPM_P1;HPM_P2
2023/05/07 00:00:26;;;;;;;;;;;;;;;11.64;100.00;95780.19;5084951;28;19932;-74
2023/05/07 00:02:52;;;;;;;;;;;;;;;11.49;100.00;95768.25;5089121;28;19934;-74
2023/05/07 00:05:18;;;;;;;;;;;;;;;11.39;100.00;95773.25;5084707;28;20053;-74
2023/05/07 00:07:45;;;;;;;;;;;;;;;11.46;100.00;95771.03;5086977;28;19932;-75
2023/05/07 00:10:12;;;;;;;;;;;;;;;11.51;100.00;95772.41;5082040;28;20286;-74
2023/05/07 00:12:38;;;;;;;;;;;;;;;11.58;100.00;95771.06;5079221;28;19931;-74
2023/05/07 00:15:06;;;;;;;;;;;;;;;11.70;100.00;95769.41;5083876;28;20387;-74
2023/05/07 00:17:34;;;;;;;;;;;;;;;11.68;100.00;95765.25;5085415;28;19924;-74
2023/05/07 00:20:00;;;;;;;;;;;;;;;11.63;100.00;95762.97;5090088;28;19924;-74
2023/05/07 00:22:26;;;;;;;;;;;;;;;11.41;100.00;95763.56;5090045;28;20641;-74
2023/05/07 00:24:52;;;;;;;;;;;;;;;11.30;100.00;95755.69;5082684;28;20333;-74
2023/05/07 00:27:19;;;;;;;;;;;;;;;11.32;100.00;95765.03;5079823;28;19928;-74
2023/05/07 00:29:45;;;;;;;;;;;;;;;11.39;100.00;95758.50;5091641;28;19932;-74
2023/05/07 00:32:13;;;;;;;;;;;;;;;11.44;100.00;95758.19;5086085;28;20023;-74
2023/05/07 00:34:39;;;;;;;;;;;;;;;11.52;100.00;95760.28;5089665;28;19928;-74
2023/05/07 00:37:07;;;;;;;;;;;;;;;11.54;100.00;95750.66;5082188;28;20418;-74
2023/05/07 00:39:33;;;;;;;;;;;;;;;11.42;100.00;95754.03;5080118;28;19928;-74
2023/05/07 00:42:00;;;;;;;;;;;;;;;11.38;100.00;95753.41;5082455;28;19928;-75
2023/05/07 00:44:26;;;;;;;;;;;;;;;11.42;100.00;95746.25;5085071;28;19978;-74
2023/05/07 00:46:54;;;;;;;;;;;;;;;11.47;100.00;95741.59;5083827;28;20340;-74
2023/05/07 00:49:22;;;;;;;;;;;;;;;11.54;100.00;95748.03;5083990;28;19979;-74
2023/05/07 00:51:48;;;;;;;;;;;;;;;11.61;100.00;95749.31;5088884;28;19932;-74
2023/05/07 00:54:15;;;;;;;;;;;;;;;11.66;100.00;95748.97;5080529;28;19958;-74
2023/05/07 00:56:41;;;;;;;;;;;;;;;11.66;100.00;95751.56;5085782;28;19950;-74
2023/05/07 00:59:07;;;;;;;;;;;;;;;11.61;100.00;95746.72;5088217;28;19978;-74
2023/05/07 01:01:34;;;;;;;;;;;;;;;11.62;100.00;95751.78;5089694;28;19974;-74
2023/05/07 01:04:01;;;;;;;;;;;;;;;11.65;100.00;95744.75;5086795;28;19924;-75
2023/05/07 01:06:30;;;;;;;;;;;;;;;11.68;100.00;95745.38;5085629;28;20398;-74
2023/05/07 01:08:57;;;;;;;;;;;;;;;11.63;100.00;95735.28;5081587;28;19928;-74
2023/05/07 01:11:23;;;;;;;;;;;;;;;11.59;100.00;95736.41;5085447;28;19930;-74
2023/05/07 01:13:50;;;;;;;;;;;;;;;11.54;100.00;95741.09;5082654;28;19931;-74
2023/05/07 01:16:17;;;;;;;;;;;;;;;11.34;100.00;95742.41;5083621;28;20452;-74
2023/05/07 01:18:44;;;;;;;;;;;;;;;11.33;100.00;95745.09;5089947;28;19971;-73
2023/05/07 01:21:11;;;;;;;;;;;;;;;11.42;100.00;95748.84;5089185;28;19963;-74
2023/05/07 01:23:40;;;;;;;;;;;;;;;11.47;100.00;95741.59;5086466;28;19924;-74
2023/05/07 01:26:06;;;;;;;;;;;;;;;11.39;100.00;95735.16;5074561;28;19989;-74
2023/05/07 01:28:32;;;;;;;;;;;;;;;11.31;100.00;95732.25;5086708;28;19953;-74
2023/05/07 01:31:01;;;;;;;;;;;;;;;11.21;100.00;95736.38;5081855;28;19927;-74
2023/05/07 01:33:31;;;;;;;;;;;;;;;11.22;100.00;95743.22;5080397;28;20375;-74
2023/05/07 01:35:58;;;;;;;;;;;;;;;11.26;100.00;95736.91;5085976;28;19963;-74
2023/05/07 01:38:24;;;;;;;;;;;;;;;11.19;100.00;95738.22;5082024;28;19979;-74
2023/05/07 01:40:52;;;;;;;;;;;;;;;11.19;100.00;95734.81;5080315;28;20357;-74
2023/05/07 01:43:19;;;;;;;;;;;;;;;11.16;100.00;95741.06;5086677;28;19924;-74
2023/05/07 01:45:47;;;;;;;;;;;;;;;11.13;100.00;95731.69;5077093;28;19932;-74
2023/05/07 01:48:15;;;;;;;;;;;;;;;10.99;100.00;95736.94;5074333;28;20530;-74
2023/05/07 01:50:42;;;;;;;;;;;;;;;10.97;100.00;95745.75;5079746;28;19928;-74
2023/05/07 01:53:08;;;;;;;;;;;;;;;11.00;100.00;95732.59;5082006;28;19924;-74
2023/05/07 01:55:36;;;;;;;;;;;;;;;10.92;100.00;95738.28;5079007;28;19932;-74
2023/05/07 01:58:04;;;;;;;;;;;;;;;10.97;100.00;95735.38;5088952;28;20386;-74
2023/05/07 02:00:30;;;;;;;;;;;;;;;10.90;100.00;95732.34;5091187;28;19978;-74
2023/05/07 02:02:56;;;;;;;;;;;;;;;10.80;100.00;95734.72;5083732;28;19932;-74
2023/05/07 02:05:23;;;;;;;;;;;;;;;10.77;100.00;95737.50;5088029;28;19932;-74
2023/05/07 02:07:50;;;;;;;;;;;;;;;10.84;100.00;95743.13;5087942;28;20603;-74
2023/05/07 02:10:16;;;;;;;;;;;;;;;10.89;100.00;95741.88;5089896;28;19928;-75
2023/05/07 02:12:43;;;;;;;;;;;;;;;10.94;100.00;95741.63;5086799;28;19982;-74
2023/05/07 02:15:11;;;;;;;;;;;;;;;10.95;100.00;95747.63;5079278;28;20042;-74
2023/05/07 02:17:40;;;;;;;;;;;;;;;10.97;100.00;95750.94;5078502;28;19949;-74
2023/05/07 02:20:13;;;;;;;;;;;;;;;10.99;100.00;95738.72;5075670;28;19987;-75
2023/05/07 02:22:39;;;;;;;;;;;;;;;10.99;100.00;95741.31;5086426;28;20309;-74
2023/05/07 02:25:05;;;;;;;;;;;;;;;10.91;100.00;95744.41;5072445;28;19925;-74
2023/05/07 02:27:31;;;;;;;;;;;;;;;10.94;100.00;95748.53;5083649;28;19928;-74
2023/05/07 02:29:58;;;;;;;;;;;;;;;10.87;100.00;95741.16;5078463;28;19924;-74
2023/05/07 02:32:25;;;;;;;;;;;;;;;10.71;100.00;95740.47;5081659;28;19928;-74
2023/05/07 02:34:52;;;;;;;;;;;;;;;10.69;100.00;95739.75;5087409;28;19928;-74
2023/05/07 02:37:18;;;;;;;;;;;;;;;10.70;100.00;95743.16;5080892;28;20011;-74
2023/05/07 02:39:44;;;;;;;;;;;;;;;10.77;100.00;95747.03;5085375;28;19924;-74
2023/05/07 02:42:10;;;;;;;;;;;;;;;10.62;100.00;95744.50;5084597;28;19924;-74
2023/05/07 02:44:37;;;;;;;;;;;;;;;10.58;100.00;95734.44;5087372;28;19936;-74
2023/05/07 02:47:08;;;;;;;;;;;;;;;10.47;100.00;95736.88;5070868;28;19924;-75
2023/05/07 02:49:35;;;;;;;;;;;;;;;10.42;100.00;95737.16;5081312;28;19924;-73
2023/05/07 02:52:02;;;;;;;;;;;;;;;10.45;100.00;95730.94;5090059;28;19928;-75
2023/05/07 02:54:28;;;;;;;;;;;;;;;10.49;100.00;95720.28;5086840;28;19970;-74
2023/05/07 02:56:54;;;;;;;;;;;;;;;10.51;100.00;95720.19;5082947;28;19924;-74
2023/05/07 02:59:20;;;;;;;;;;;;;;;10.45;100.00;95718.00;5086322;28;19924;-74
2023/05/07 03:01:48;;;;;;;;;;;;;;;10.24;100.00;95712.38;5088276;28;19932;-74
2023/05/07 03:04:16;;;;;;;;;;;;;;;10.18;100.00;95711.00;5084043;28;21284;-74
2023/05/07 03:06:43;;;;;;;;;;;;;;;10.06;100.00;95714.34;5083394;28;19928;-74
2023/05/07 03:09:10;;;;;;;;;;;;;;;10.09;100.00;95722.75;5083849;28;19971;-75
2023/05/07 03:11:37;;;;;;;;;;;;;;;10.10;100.00;95727.00;5086057;28;19928;-74
2023/05/07 03:14:03;;;;;;;;;;;;;;;10.07;100.00;95727.19;5078183;28;20611;-74
2023/05/07 03:16:29;;;;;;;;;;;;;;;10.21;100.00;95736.69;5081376;28;19925;-74
2023/05/07 03:18:56;;;;;;;;;;;;;;;10.33;100.00;95730.78;5085814;28;19936;-74
2023/05/07 03:21:22;;;;;;;;;;;;;;;10.42;100.00;95726.81;5085201;28;19932;-75
2023/05/07 03:23:49;;;;;;;;;;;;;;;10.40;100.00;95726.88;5081032;28;19927;-74
2023/05/07 03:26:16;;;;;;;;;;;;;;;10.45;100.00;95730.94;5072147;28;19929;-74
2023/05/07 03:28:42;;;;;;;;;;;;;;;10.43;100.00;95722.44;5083483;28;20001;-74
2023/05/07 03:31:08;;;;;;;;;;;;;;;10.38;100.00;95722.72;5085900;28;19924;-73
2023/05/07 03:33:35;;;;;;;;;;;;;;;10.45;100.00;95728.34;5087717;28;19993;-74
2023/05/07 03:36:01;;;;;;;;;;;;;;;10.49;100.00;95716.88;5085640;28;19928;-74
2023/05/07 03:38:27;;;;;;;;;;;;;;;10.50;100.00;95714.19;5087061;28;19982;-74
2023/05/07 03:40:55;;;;;;;;;;;;;;;10.36;100.00;95712.47;5084775;28;19935;-74
2023/05/07 03:43:21;;;;;;;;;;;;;;;10.22;100.00;95709.06;5072495;28;19982;-73
2023/05/07 03:45:48;;;;;;;;;;;;;;;10.24;100.00;95710.63;5078438;28;19928;-73
2023/05/07 03:48:14;;;;;;;;;;;;;;;10.12;100.00;95713.94;5085984;28;19969;-73
2023/05/07 03:50:40;;;;;;;;;;;;;;;9.83;100.00;95708.84;5085203;28;19924;-74
2023/05/07 03:53:06;;;;;;;;;;;;;;;9.85;100.00;95713.91;5091605;28;19935;-74
2023/05/07 03:55:32;;;;;;;;;;;;;;;9.88;100.00;95716.31;5077406;28;20279;-73
2023/05/07 03:58:00;;;;;;;;;;;;;;;9.81;100.00;95718.44;5074552;28;19931;-73
2023/05/07 04:00:26;;;;;;;;;;;;;;;9.85;100.00;95719.06;5088759;28;19989;-74
2023/05/07 04:02:53;;;;;;;;;;;;;;;9.88;100.00;95719.72;5087968;28;19924;-74
2023/05/07 04:05:19;;;;;;;;;;;;;;;9.66;100.00;95725.34;5084702;28;20405;-75
2023/05/07 04:07:45;;;;;;;;;;;;;;;9.83;100.00;95729.53;5090173;28;19993;-74
2023/05/07 04:10:13;;;;;;;;;;;;;;;9.97;100.00;95738.19;5084238;28;19928;-74
2023/05/07 04:12:39;;;;;;;;;;;;;;;10.00;100.00;95731.06;5089308;28;20305;-74
2023/05/07 04:15:07;;;;;;;;;;;;;;;10.01;100.00;95727.59;5082187;28;20593;-74
2023/05/07 04:17:34;;;;;;;;;;;;;;;9.96;100.00;95734.78;5083570;28;19924;-75
2023/05/07 04:20:00;;;;;;;;;;;;;;;9.95;100.00;95727.94;5081836;28;20306;-74
2023/05/07 04:22:26;;;;;;;;;;;;;;;9.96;100.00;95736.53;5087537;28;19972;-75
2023/05/07 04:24:53;;;;;;;;;;;;;;;10.01;100.00;95739.66;5085159;28;19928;-74
2023/05/07 04:27:20;;;;;;;;;;;;;;;10.01;100.00;95734.47;5090965;28;19969;-74
2023/05/07 04:29:47;;;;;;;;;;;;;;;9.94;100.00;95745.22;5087062;28;19962;-75
2023/05/07 04:32:14;;;;;;;;;;;;;;;9.97;100.00;95743.38;5084143;28;20050;-74
2023/05/07 04:34:40;;;;;;;;;;;;;;;10.04;100.00;95742.06;5087008;28;19984;-74
2023/05/07 04:37:07;;;;;;;;;;;;;;;10.13;100.00;95731.16;5091356;28;19981;-74
2023/05/07 04:39:35;;;;;;;;;;;;;;;10.14;100.00;95741.41;5083340;28;19928;-74
2023/05/07 04:42:01;;;;;;;;;;;;;;;10.21;100.00;95739.28;5090029;28;20544;-74
2023/05/07 04:44:27;;;;;;;;;;;;;;;10.21;100.00;95731.53;5084917;28;19928;-74
2023/05/07 04:46:53;;;;;;;;;;;;;;;10.26;100.00;95734.66;5076110;28;19928;-74
2023/05/07 04:49:21;;;;;;;;;;;;;;;10.16;100.00;95737.00;5087552;28;19969;-74
2023/05/07 04:51:47;;;;;;;;;;;;;;;10.07;100.00;95736.72;5081941;28;19931;-74
2023/05/07 04:54:13;;;;;;;;;;;;;;;9.99;100.00;95744.13;5081591;28;19986;-75
2023/05/07 04:56:40;;;;;;;;;;;;;;;9.98;100.00;95745.88;5080466;28;19981;-74
2023/05/07 04:59:06;;;;;;;;;;;;;;;10.04;100.00;95753.25;5083541;28;19928;-74
2023/05/07 05:01:32;;;;;;;;;;;;;;;10.10;100.00;95752.88;5085617;28;19928;-74
2023/05/07 05:03:59;;;;;;;;;;;;;;;10.19;100.00;95748.88;5086204;28;19929;-75
2023/05/07 05:06:27;;;;;;;;;;;;;;;10.31;100.00;95747.34;5092081;28;20019;-74
2023/05/07 05:08:53;;;;;;;;;;;;;;;10.36;100.00;95748.72;5081823;28;19968;-75
2023/05/07 05:11:20;;;;;;;;;;;;;;;10.49;100.00;95745.34;5088384;28;19924;-74
2023/05/07 05:13:48;;;;;;;;;;;;;;;10.67;100.00;95757.13;5084227;28;19928;-74
2023/05/07 05:16:15;;;;;;;;;;;;;;;10.83;100.00;95763.03;5085544;28;19928;-74
2023/05/07 05:18:41;;;;;;;;;;;;;;;10.95;100.00;95765.75;5075634;28;19978;-74
2023/05/07 05:21:07;;;;;;;;;;;;;;;11.00;100.00;95763.69;5076549;28;19983;-74
2023/05/07 05:23:35;;;;;;;;;;;;;;;11.04;100.00;95765.16;5086648;28;20402;-74
2023/05/07 05:26:01;;;;;;;;;;;;;;;11.07;100.00;95765.78;5081148;28;19973;-74
2023/05/07 05:28:28;;;;;;;;;;;;;;;11.14;100.00;95764.47;5075405;28;19928;-74
2023/05/07 05:30:54;;;;;;;;;;;;;;;11.23;100.00;95757.84;5078832;28;19924;-74
2023/05/07 05:33:21;;;;;;;;;;;;;;;11.52;100.00;95768.06;5078603;28;20027;-75
2023/05/07 05:35:47;;;;;;;;;;;;;;;11.55;100.00;95766.09;5085226;28;19989;-74
2023/05/07 05:38:13;;;;;;;;;;;;;;;11.56;100.00;95778.13;5080079;28;19931;-75
2023/05/07 05:40:41;;;;;;;;;;;;;;;11.57;100.00;95766.84;5078643;28;19990;-75
2023/05/07 05:43:07;;;;;;;;;;;;;;;11.88;100.00;95756.19;5083557;28;19928;-75
2023/05/07 05:45:33;;;;;;;;;;;;;;;12.04;100.00;95768.00;5081071;28;19970;-75
2023/05/07 05:48:00;;;;;;;;;;;;;;;12.23;100.00;95783.13;5080313;28;19986;-75
2023/05/07 05:50:26;;;;;;;;;;;;;;;11.90;100.00;95781.06;5084033;28;19990;-75
2023/05/07 05:52:53;;;;;;;;;;;;;;;11.81;100.00;95779.09;5080313;28;19977;-75
2023/05/07 05:55:19;;;;;;;;;;;;;;;11.94;100.00;95782.56;5077492;28;19994;-75
2023/05/07 05:57:47;;;;;;;;;;;;;;;12.00;100.00;95781.28;5087024;28;19924;-75
2023/05/07 06:00:14;;;;;;;;;;;;;;;12.25;100.00;95785.63;5081030;28;19925;-76
2023/05/07 06:02:40;;;;;;;;;;;;;;;12.56;100.00;95782.53;5086393;28;20356;-75
2023/05/07 06:05:06;;;;;;;;;;;;;;;12.55;100.00;95773.09;5086686;28;19928;-75
2023/05/07 06:07:33;;;;;;;;;;;;;;;12.74;100.00;95779.59;5085842;28;19924;-75
2023/05/07 06:09:59;;;;;;;;;;;;;;;12.85;100.00;95764.06;5084315;28;19935;-75
2023/05/07 06:12:25;;;;;;;;;;;;;;;12.95;100.00;95769.44;5083072;28;19931;-75
2023/05/07 06:14:53;;;;;;;;;;;;;;;13.07;100.00;95777.16;5089366;28;20336;-75
2023/05/07 06:17:19;;;;;;;;;;;;;;;13.08;100.00;95778.00;5080708;28;19932;-75
2023/05/07 06:19:45;;;;;;;;;;;;;;;13.19;100.00;95777.22;5088711;28;19924;-75
2023/05/07 06:22:11;;;;;;;;;;;;;;;13.17;100.00;95776.50;5078666;28;19985;-75
2023/05/07 06:24:38;;;;;;;;;;;;;;;13.33;100.00;95774.47;5088510;28;19928;-76
2023/05/07 06:27:04;;;;;;;;;;;;;;;13.50;100.00;95776.66;5080814;28;19970;-75
2023/05/07 06:29:32;;;;;;;;;;;;;;;13.67;100.00;95784.97;5086612;28;20382;-75
2023/05/07 06:32:06;;;;;;;;;;;;;;;13.66;100.00;95796.31;5087565;28;19928;-75
2023/05/07 06:34:33;;;;;;;;;;;;;;;13.47;100.00;95782.09;5089920;28;19974;-75
2023/05/07 06:36:59;;;;;;;;;;;;;;;13.44;100.00;95782.31;5083564;28;20009;-73
2023/05/07 06:39:25;;;;;;;;;;;;;;;13.75;100.00;95785.22;5079875;28;19931;-76
2023/05/07 06:41:52;;;;;;;;;;;;;;;13.73;100.00;95793.16;5077807;28;19928;-76
2023/05/07 06:44:18;;;;;;;;;;;;;;;13.79;100.00;95782.28;5082731;28;20399;-77
2023/05/07 06:46:44;;;;;;;;;;;;;;;14.00;100.00;95784.19;5075737;28;20439;-76
2023/05/07 06:49:13;;;;;;;;;;;;;;;14.34;100.00;95785.03;5086199;28;20019;-78
2023/05/07 06:51:39;;;;;;;;;;;;;;;14.52;100.00;95780.22;5083392;28;20313;-78
2023/05/07 06:54:05;;;;;;;;;;;;;;;14.73;100.00;95777.69;5086130;28;19928;-78
2023/05/07 06:56:32;;;;;;;;;;;;;;;14.93;100.00;95776.09;5080792;28;19928;-76
2023/05/07 06:58:58;;;;;;;;;;;;;;;15.24;100.00;95772.69;5080774;28;19924;-77
2023/05/07 07:01:24;;;;;;;;;;;;;;;15.58;100.00;95774.31;5088910;28;19924;-78
2023/05/07 07:03:51;;;;;;;;;;;;;;;16.02;100.00;95783.69;5080197;28;20341;-77
2023/05/07 07:06:18;;;;;;;;;;;;;;;16.38;100.00;95781.50;5088944;28;19931;-77
2023/05/07 07:08:45;;;;;;;;;;;;;;;16.52;100.00;95796.84;5086035;28;20463;-75
2023/05/07 07:11:11;;;;;;;;;;;;;;;16.43;100.00;95788.00;5085224;28;20700;-77
2023/05/07 07:13:38;;;;;;;;;;;;;;;16.38;100.00;95789.34;5084211;28;19924;-77
2023/05/07 07:16:04;;;;;;;;;;;;;;;16.55;100.00;95785.31;5084490;28;19931;-77
2023/05/07 07:18:30;;;;;;;;;;;;;;;16.35;100.00;95789.59;5085047;28;19925;-78
2023/05/07 07:20:57;;;;;;;;;;;;;;;15.83;100.00;95788.78;5088262;28;20330;-78
2023/05/07 07:23:24;;;;;;;;;;;;;;;15.71;100.00;95791.47;5082345;28;19931;-78
2023/05/07 07:25:51;;;;;;;;;;;;;;;15.81;100.00;95795.94;5083951;28;19925;-78
2023/05/07 07:28:18;;;;;;;;;;;;;;;15.81;100.00;95786.31;5075411;28;19933;-78
2023/05/07 07:30:45;;;;;;;;;;;;;;;15.75;100.00;95793.81;5071565;28;19925;-78
2023/05/07 07:33:11;;;;;;;;;;;;;;;15.79;100.00;95792.63;5079512;28;19932;-77
2023/05/07 07:35:38;;;;;;;;;;;;;;;15.91;100.00;95796.84;5088113;28;20007;-78
2023/05/07 07:38:05;;;;;;;;;;;;;;;16.24;100.00;95794.91;5082998;28;19924;-79
2023/05/07 07:40:32;;;;;;;;;;;;;;;16.51;100.00;95792.59;5091058;28;19928;-79
2023/05/07 07:42:59;;;;;;;;;;;;;;;16.91;100.00;95789.16;5096272;28;19950;-79
2023/05/07 07:45:25;;;;;;;;;;;;;;;17.03;100.00;95795.09;5090067;28;19977;-79
2023/05/07 07:47:52;;;;;;;;;;;;;;;17.37;100.00;95792.91;5086418;28;19928;-79
2023/05/07 07:50:18;;;;;;;;;;;;;;;17.63;100.00;95785.34;5088161;28;20402;-79
2023/05/07 07:52:44;;;;;;;;;;;;;;;17.56;100.00;95792.09;5093290;28;19935;-79
2023/05/07 07:55:11;;;;;;;;;;;;;;;17.71;100.00;95792.50;5092379;28;20340;-79
2023/05/07 07:57:39;;;;;;;;;;;;;;;17.88;100.00;95792.63;5087033;28;19978;-79
2023/05/07 08:00:07;;;;;;;;;;;;;;;17.71;100.00;95795.94;5085530;28;19924;-79
2023/05/07 08:02:33;;;;;;;;;;;;;;;17.50;100.00;95796.09;5086106;28;19935;-79
2023/05/07 08:04:59;;;;;;;;;;;;;;;17.38;100.00;95799.78;5087276;28;19928;-80
2023/05/07 08:07:25;;;;;;;;;;;;;;;17.47;100.00;95806.03;5092330;28;19978;-79
2023/05/07 08:09:52;;;;;;;;;;;;;;;17.52;100.00;95796.78;5090843;28;20348;-80
2023/05/07 08:12:18;;;;;;;;;;;;;;;17.92;100.00;95802.84;5092022;28;19925;-80
2023/05/07 08:14:45;;;;;;;;;;;;;;;18.06;100.00;95795.38;5090298;28;19932;-79
2023/05/07 08:17:12;;;;;;;;;;;;;;;18.44;100.00;95796.22;5090692;28;19936;-79
2023/05/07 08:19:39;;;;;;;;;;;;;;;18.66;100.00;95794.19;5089222;28;19967;-80
2023/05/07 08:22:05;;;;;;;;;;;;;;;18.16;100.00;95795.31;5093416;28;19924;-79
2023/05/07 08:24:31;;;;;;;;;;;;;;;17.95;100.00;95792.06;5087909;28;19952;-78
2023/05/07 08:26:57;;;;;;;;;;;;;;;18.00;100.00;95798.53;5084810;28;19925;-77
2023/05/07 08:29:24;;;;;;;;;;;;;;;18.51;100.00;95788.59;5086434;28;19928;-79
2023/05/07 08:31:51;;;;;;;;;;;;;;;18.37;100.00;95795.94;5092735;28;20022;-80
2023/05/07 08:34:18;;;;;;;;;;;;;;;18.42;100.00;95790.28;5083179;28;19931;-78
2023/05/07 08:36:46;;;;;;;;;;;;;;;18.68;100.00;95790.44;5090721;28;20271;-79
2023/05/07 08:39:13;;;;;;;;;;;;;;;18.93;99.29;95788.13;5081244;28;20390;-80
2023/05/07 08:41:39;;;;;;;;;;;;;;;18.91;98.70;95784.81;5091878;28;20347;-80
2023/05/07 08:44:07;;;;;;;;;;;;;;;19.10;99.59;95788.16;5084312;28;19933;-79
2023/05/07 08:46:33;;;;;;;;;;;;;;;18.82;99.36;95792.59;5084834;28;20382;-80
2023/05/07 08:49:01;;;;;;;;;;;;;;;19.39;97.80;95789.75;5090318;28;19925;-80
2023/05/07 08:51:27;;;;;;;;;;;;;;;19.75;95.75;95787.97;5093749;28;19981;-77
2023/05/07 08:53:53;;;;;;;;;;;;;;;19.66;92.34;95794.13;5089197;28;19950;-77
2023/05/07 08:56:20;;;;;;;;;;;;;;;20.05;94.71;95794.56;5087041;28;19991;-78
2023/05/07 08:58:46;;;;;;;;;;;;;;;20.32;91.75;95798.06;5088766;28;19928;-77
2023/05/07 09:01:14;;;;;;;;;;;;;;;20.30;91.70;95792.94;5082675;28;19960;-77
2023/05/07 09:03:40;;;;;;;;;;;;;;;20.68;89.03;95796.09;5090609;28;19950;-77
2023/05/07 09:06:08;;;;;;;;;;;;;;;20.52;87.23;95791.59;5090807;28;19928;-77
2023/05/07 09:08:35;;;;;;;;;;;;;;;20.21;89.22;95785.13;5092373;28;20279;-77
2023/05/07 09:11:02;;;;;;;;;;;;;;;20.45;89.95;95787.91;5085224;28;20456;-76
2023/05/07 09:13:28;;;;;;;;;;;;;;;20.53;88.88;95784.53;5089366;28;19989;-77
2023/05/07 09:15:54;;;;;;;;;;;;;;;20.73;88.34;95787.75;5084781;28;19924;-77
2023/05/07 09:18:21;;;;;;;;;;;;;;;20.88;82.76;95786.16;5090753;28;19982;-75
2023/05/07 09:20:47;;;;;;;;;;;;;;;21.01;85.27;95789.16;5077956;28;19925;-74
2023/05/07 09:23:14;;;;;;;;;;;;;;;21.36;85.52;95779.41;5082493;28;19928;-75
2023/05/07 09:25:41;;;;;;;;;;;;;;;21.60;82.66;95772.50;5085908;28;19970;-75
2023/05/07 09:28:09;;;;;;;;;;;;;;;21.94;88.56;95770.50;5087652;28;19981;-76
2023/05/07 09:30:36;;;;;;;;;;;;;;;22.09;85.77;95777.72;5087197;28;19924;-75
2023/05/07 09:33:03;;;;;;;;;;;;;;;22.08;81.59;95776.09;5085816;28;20008;-75
2023/05/07 09:35:30;;;;;;;;;;;;;;;22.21;90.46;95779.91;5085410;28;19925;-75
2023/05/07 09:37:57;;;;;;;;;;;;;;;22.46;83.57;95778.00;5084508;28;19931;-74
2023/05/07 09:40:25;;;;;;;;;;;;;;;22.51;78.55;95771.41;5083097;28;19970;-76
2023/05/07 09:42:52;;;;;;;;;;;;;;;22.73;74.73;95775.97;5083611;28;20019;-76
2023/05/07 09:45:22;;;;;;;;;;;;;;;22.68;79.65;95768.53;5087956;28;20318;-76
2023/05/07 09:47:49;;;;;;;;;;;;;;;23.13;77.07;95760.91;5080750;28;19932;-75
2023/05/07 09:50:16;;;;;;;;;;;;;;;23.11;73.53;95768.22;5090803;27;19928;-75
2023/05/07 09:52:43;;;;;;;;;;;;;;;23.22;84.20;95764.34;5076664;28;19924;-76
2023/05/07 09:55:10;;;;;;;;;;;;;;;23.31;82.97;95764.09;5087243;28;19924;-76
2023/05/07 09:57:38;;;;;;;;;;;;;;;23.43;72.23;95768.00;5088069;28;19928;-76
2023/05/07 10:00:07;;;;;;;;;;;;;;;22.50;71.46;95754.75;5086920;28;19924;-76
2023/05/07 10:02:36;;;;;;;;;;;;;;;22.85;80.80;95756.09;5081253;28;19925;-76
2023/05/07 10:05:02;;;;;;;;;;;;;;;23.42;79.15;95752.31;5088833;28;19924;-76
2023/05/07 10:07:29;;;;;;;;;;;;;;;23.66;74.63;95751.31;5080932;28;19925;-75
2023/05/07 10:09:56;;;;;;;;;;;;;;;23.81;83.41;95746.91;5088066;28;19924;-76
2023/05/07 10:12:22;;;;;;;;;;;;;;;23.72;79.74;95752.44;5084745;28;19924;-76
2023/05/07 10:14:51;;;;;;;;;;;;;;;23.90;77.17;95748.47;5085743;28;19924;-75
2023/05/07 10:17:18;;;;;;;;;;;;;;;24.00;74.50;95745.59;5077206;28;19929;-75
2023/05/07 10:19:45;;;;;;;;;;;;;;;23.94;73.12;95743.66;5086278;28;20022;-75
2023/05/07 10:22:11;;;;;;;;;;;;;;;23.99;66.46;95745.75;5089199;28;19978;-75
2023/05/07 10:24:38;;;;;;;;;;;;;;;23.84;68.96;95745.72;5085781;28;19923;-75
2023/05/07 10:27:06;;;;;;;;;;;;;;;23.82;65.56;95740.63;5085877;28;19924;-76
2023/05/07 10:29:37;;;;;;;;;;;;;;;23.51;71.47;95738.06;5084614;28;19924;-75
2023/05/07 10:32:13;;;;;;;;;;;;;;;23.22;66.05;95744.03;5072298;28;19924;-76
2023/05/07 10:34:42;;;;;;;;;;;;;;;22.99;63.20;95748.44;5081712;28;19986;-75
2023/05/07 10:37:10;;;;;;;;;;;;;;;22.78;66.93;95738.47;5073790;28;19928;-75
2023/05/07 10:39:37;;;;;;;;;;;;;;;22.44;63.73;95742.25;5074514;28;19939;-76
2023/05/07 10:42:08;;;;;;;;;;;;;;;22.44;68.76;95748.34;5073703;28;19925;-76
2023/05/07 10:44:35;;;;;;;;;;;;;;;22.23;65.43;95745.44;5081513;28;19970;-76
2023/05/07 10:47:12;;;;;;;;;;;;;;;21.73;64.96;95752.56;5079629;28;20345;-77
2023/05/07 10:50:12;;;;;;;;;;;;;;;21.46;67.29;95761.59;5087631;28;19928;-77
2023/05/07 10:52:39;;;;;;;;;;;;;;;20.68;78.95;95756.63;5080808;28;20271;-77
2023/05/07 10:55:21;;;;;;;;;;;;;;;20.23;83.97;95759.53;5083041;28;19950;-77
2023/05/07 10:57:47;;;;;;;;;;;;;;;19.92;87.51;95757.38;5082266;28;20018;-77
2023/05/07 11:00:32;;;;;;;;;;;;;;;19.85;91.03;95755.50;5086074;28;20026;-77
2023/05/07 11:03:08;;;;;;;;;;;;;;;19.42;94.74;95751.84;5070479;28;20294;-77
2023/05/07 11:05:35;;;;;;;;;;;;;;;19.13;98.70;95754.69;5084006;28;19931;-76
2023/05/07 11:08:02;;;;;;;;;;;;;;;19.05;100.00;95756.28;5087844;28;19928;-77
2023/05/07 11:10:43;;;;;;;;;;;;;;;18.75;100.00;95756.59;5086627;28;20402;-77
2023/05/07 11:13:09;;;;;;;;;;;;;;;18.65;100.00;95761.91;5085192;28;19928;-77
2023/05/07 11:15:37;;;;;;;;;;;;;;;18.33;100.00;95767.56;5085280;28;19924;-77
2023/05/07 11:18:04;;;;;;;;;;;;;;;18.23;100.00;95770.19;5088574;28;19970;-77
2023/05/07 11:20:51;;;;;;;;;;;;;;;18.06;100.00;95773.59;5077553;28;20019;-77
2023/05/07 11:23:33;;;;;;;;;;;;;;;17.79;100.00;95782.16;5087714;28;19932;-76
2023/05/07 11:26:00;;;;;;;;;;;;;;;17.53;100.00;95776.66;5077043;28;19973;-76
2023/05/07 11:28:28;;;;;;;;;;;;;;;17.16;100.00;95778.16;5084649;28;20019;-77
2023/05/07 11:30:54;;;;;;;;;;;;;;;16.86;100.00;95779.06;5082508;28;19924;-77
2023/05/07 11:33:20;;;;;;;;;;;;;;;16.85;100.00;95777.44;5083532;28;19928;-78
2023/05/07 11:35:47;;;;;;;;;;;;;;;16.68;100.00;95776.25;5080239;28;19925;-77
2023/05/07 11:38:16;;;;;;;;;;;;;;;16.50;100.00;95780.47;5078290;28;19924;-77
2023/05/07 11:40:49;;;;;;;;;;;;;;;15.96;100.00;95785.03;5075118;28;19928;-77
2023/05/07 11:43:16;;;;;;;;;;;;;;;15.73;100.00;95793.97;5083996;28;19993;-77
2023/05/07 11:45:42;;;;;;;;;;;;;;;15.54;100.00;95796.41;5080051;28;19928;-74
2023/05/07 11:48:08;;;;;;;;;;;;;;;15.18;100.00;95804.47;5065440;28;20299;-77
2023/05/07 11:50:34;;;;;;;;;;;;;;;15.28;100.00;95807.19;5079006;28;19928;-77
2023/05/07 11:53:01;;;;;;;;;;;;;;;15.42;100.00;95811.25;5069998;28;19928;-77
2023/05/07 11:55:28;;;;;;;;;;;;;;;15.67;100.00;95804.91;5067064;28;20386;-77
2023/05/07 11:57:55;;;;;;;;;;;;;;;15.63;100.00;95808.69;5077933;28;19924;-77
2023/05/07 12:00:21;;;;;;;;;;;;;;;15.54;100.00;95807.69;5079626;28;19932;-77
2023/05/07 12:02:47;;;;;;;;;;;;;;;15.55;100.00;95798.06;5078991;28;20366;-77
2023/05/07 12:05:13;;;;;;;;;;;;;;;15.52;100.00;95795.69;5086978;28;19924;-77
2023/05/07 12:07:40;;;;;;;;;;;;;;;15.65;100.00;95794.59;5084150;28;19930;-77
2023/05/07 12:10:06;;;;;;;;;;;;;;;15.94;100.00;95791.31;5078537;28;20244;-77
2023/05/07 12:12:41;;;;;;;;;;;;;;;16.23;100.00;95785.44;5076570;28;20749;-77
2023/05/07 12:15:08;;;;;;;;;;;;;;;16.31;100.00;95778.59;5080364;28;19979;-77
2023/05/07 12:17:34;;;;;;;;;;;;;;;16.28;100.00;95765.81;5082958;28;19978;-77
2023/05/07 12:20:01;;;;;;;;;;;;;;;16.35;100.00;95769.56;5077827;28;19925;-77
2023/05/07 12:22:27;;;;;;;;;;;;;;;16.40;100.00;95767.38;5080686;28;19924;-76
2023/05/07 12:24:57;;;;;;;;;;;;;;;16.59;100.00;95765.78;5081031;28;19924;-76
2023/05/07 12:27:23;;;;;;;;;;;;;;;16.24;100.00;95767.03;5083070;28;19929;-77
2023/05/07 12:29:51;;;;;;;;;;;;;;;16.35;100.00;95764.31;5080121;28;19978;-76
2023/05/07 12:32:18;;;;;;;;;;;;;;;16.54;100.00;95771.41;5083494;28;19932;-77
2023/05/07 12:34:45;;;;;;;;;;;;;;;16.50;100.00;95804.00;5070140;28;19925;-77
2023/05/07 12:37:12;;;;;;;;;;;;;;;16.08;100.00;95824.97;5081523;28;19928;-76